Time;durP1;ratioP1;P1;durP2;ratioP2;P2;SDS_P1;SDS_P2;PMS_P1;PMS_P2;Temp;Humidity;BMP_temperature;BMP_pressure;BME280_temperature;BME280_humidity;BME280_pressure;Samples;Min_cycle;Max_cycle;Signal;HPM_P1;HPM_P2
2022/01/20 00:01:48;;;;;;;3.78;2.17;;;;;;;19.23;44.94;96744.00;13044547;22;20016;-54
2022/01/20 00:29:03;;;;;;;2.00;1.63;;;;;;;19.15;44.71;96737.53;13044442;22;20696;-55
2022/01/20 00:34:36;;;;;;;2.85;1.50;;;;;;;19.11;44.85;96723.09;13044403;22;20012;-54
2022/01/20 00:39:59;;;;;;;3.25;1.60;;;;;;;19.12;44.73;96716.59;13044676;22;20019;-55
2022/01/20 00:45:19;;;;;;;4.88;1.63;;;;;;;19.09;44.75;96712.63;13044437;22;20041;-54
2022/01/20 00:50:38;;;;;;;2.83;1.80;;;;;;;19.07;44.76;96728.38;13043259;22;20015;-54
2022/01/20 00:55:58;;;;;;;2.90;1.63;;;;;;;19.07;44.62;96741.03;13043642;22;20382;-54
2022/01/20 01:01:18;;;;;;;1.67;1.50;;;;;;;19.05;44.85;96738.69;13044045;22;20065;-54
2022/01/20 01:07:04;;;;;;;2.28;1.70;;;;;;;19.06;44.69;96742.19;13043981;22;20027;-53
2022/01/20 01:12:36;;;;;;;2.50;1.50;;;;;;;19.02;44.59;96744.72;13042973;22;20012;-54
2022/01/20 01:23:37;;;;;;;2.28;1.45;;;;;;;19.00;44.49;96735.38;13045693;22;20046;-54
2022/01/20 01:28:58;;;;;;;2.25;1.55;;;;;;;18.98;44.59;96740.28;13025243;22;20023;-55
2022/01/20 01:34:17;;;;;;;2.47;1.48;;;;;;;18.97;44.40;96750.28;13048061;22;20011;-54
2022/01/20 01:39:37;;;;;;;3.45;1.67;;;;;;;18.95;44.48;96747.94;13069016;22;20022;-54
2022/01/20 01:44:57;;;;;;;2.55;1.40;;;;;;;18.92;44.49;96732.34;13047087;22;20022;-54
2022/01/20 01:50:17;;;;;;;2.40;1.30;;;;;;;18.92;44.49;96734.28;13023913;22;20015;-54
2022/01/20 01:55:37;;;;;;;2.70;1.40;;;;;;;18.90;44.38;96740.00;13023896;22;20520;-54
2022/01/20 02:00:58;;;;;;;3.15;1.60;;;;;;;18.89;44.35;96738.38;13024359;22;20011;-54
2022/01/20 02:23:12;;;;;;;2.03;1.30;;;;;;;18.85;44.20;96701.56;13046339;22;20480;-53
2022/01/20 02:28:33;;;;;;;3.00;1.40;;;;;;;18.81;44.22;96706.03;13044488;22;20012;-54
2022/01/20 02:33:54;;;;;;;1.92;1.25;;;;;;;18.79;44.28;96690.13;13023597;22;20638;-55
2022/01/20 02:39:40;;;;;;;1.48;1.25;;;;;;;18.78;44.37;96697.44;13023771;22;20651;-55
2022/01/20 02:45:03;;;;;;;1.45;1.10;;;;;;;18.77;44.20;96693.13;13067351;22;20011;-54
2022/01/20 02:50:22;;;;;;;1.98;1.52;;;;;;;18.75;44.34;96708.84;13023379;22;20018;-54
2022/01/20 02:55:42;;;;;;;2.65;1.23;;;;;;;18.74;44.23;96709.19;13045644;22;20026;-54
2022/01/20 03:01:01;;;;;;;2.20;1.35;;;;;;;18.73;44.23;96707.59;13066844;22;20442;-54
2022/01/20 03:06:21;;;;;;;2.28;1.30;;;;;;;18.72;44.23;96697.94;13001048;22;20324;-54
2022/01/20 03:11:41;;;;;;;1.20;1.10;;;;;;;18.70;44.24;96692.84;13046270;22;20015;-54
2022/01/20 03:17:00;;;;;;;1.33;1.10;;;;;;;18.69;44.14;96675.06;13045728;22;20025;-53
2022/01/20 03:22:20;;;;;;;1.52;0.80;;;;;;;18.67;44.23;96669.19;13045613;22;20484;-54
2022/01/20 03:27:39;;;;;;;1.63;1.20;;;;;;;18.66;44.08;96670.31;13045895;22;20104;-54
2022/01/20 03:32:59;;;;;;;1.73;1.15;;;;;;;18.64;44.09;96677.94;13022628;22;20023;-55
2022/01/20 03:38:19;;;;;;;1.20;1.10;;;;;;;18.64;44.02;96671.75;13065886;22;20044;-54
2022/01/20 03:43:39;;;;;;;1.00;0.90;;;;;;;18.62;44.12;96677.47;13022279;22;20083;-54
2022/01/20 03:54:42;;;;;;;1.95;1.10;;;;;;;18.60;44.10;96673.50;13002362;22;20019;-52
2022/01/20 04:00:24;;;;;;;1.08;0.85;;;;;;;18.58;44.05;96663.84;13021995;22;20316;-55
2022/01/20 04:05:58;;;;;;;1.63;1.17;;;;;;;18.57;44.03;96661.44;13021407;22;20576;-54
2022/01/20 04:11:32;;;;;;;1.63;0.93;;;;;;;18.55;43.94;96648.28;13045034;22;20011;-54
2022/01/20 04:22:15;;;;;;;1.63;1.02;;;;;;;18.53;44.13;96655.91;13042280;22;20018;-52
2022/01/20 04:27:35;;;;;;;1.88;1.10;;;;;;;18.51;43.91;96651.94;13042467;22;20021;-54
2022/01/20 04:32:55;;;;;;;1.45;1.08;;;;;;;18.49;44.01;96657.66;13044630;22;20034;-54
2022/01/20 04:38:14;;;;;;;3.20;1.27;;;;;;;18.49;43.89;96649.56;13021206;22;20015;-55
2022/01/20 04:43:34;;;;;;;1.55;1.15;;;;;;;18.47;44.05;96641.00;13020910;22;20021;-55
2022/01/20 04:59:46;;;;;;;1.23;0.90;;;;;;;18.43;43.88;96644.66;13023231;22;20053;-54
2022/01/20 05:05:08;;;;;;;2.55;0.93;;;;;;;18.43;43.95;96639.28;13047707;22;20023;-54
2022/01/20 05:10:39;;;;;;;2.55;0.80;;;;;;;18.41;43.89;96658.47;13067725;22;20027;-55
2022/01/20 05:16:00;;;;;;;1.45;0.80;;;;;;;18.40;44.04;96666.88;13024992;22;20019;-55
2022/01/20 05:21:19;;;;;;;1.35;1.05;;;;;;;18.39;44.08;96663.38;13024319;22;20016;-54
2022/01/20 05:26:40;;;;;;;1.17;1.08;;;;;;;18.41;44.39;96668.47;13024739;22;20034;-54
2022/01/20 05:32:00;;;;;;;1.00;0.80;;;;;;;18.41;44.43;96673.88;13046932;22;20027;-53
2022/01/20 05:37:19;;;;;;;1.40;0.90;;;;;;;18.43;44.64;96677.81;13045736;22;20015;-54
2022/01/20 05:42:41;;;;;;;1.00;0.82;;;;;;;18.45;44.65;96682.91;13024673;22;20721;-54
2022/01/20 05:48:14;;;;;;;2.00;0.80;;;;;;;18.46;44.71;96674.47;13045561;22;20018;-54
2022/01/20 05:53:53;;;;;;;2.58;0.93;;;;;;;18.49;44.73;96689.25;13065569;22;20023;-52
2022/01/20 05:59:13;;;;;;;1.00;0.90;;;;;;;18.51;44.56;96684.31;13044473;22;20015;-54
2022/01/20 06:04:32;;;;;;;2.30;0.70;;;;;;;18.53;44.62;96699.06;13063412;22;20011;-55
2022/01/20 06:09:52;;;;;;;1.38;0.90;;;;;;;18.56;44.79;96695.75;13046328;22;20604;-54
2022/01/20 06:15:13;;;;;;;0.82;0.70;;;;;;;18.60;44.72;96703.19;13045036;22;20019;-55
2022/01/20 06:20:33;;;;;;;1.50;0.80;;;;;;;18.64;44.90;96715.72;13019738;22;20080;-54
2022/01/20 06:25:53;;;;;;;0.93;0.70;;;;;;;18.67;44.79;96708.88;13020266;22;20015;-54
2022/01/20 06:31:13;;;;;;;0.80;0.80;;;;;;;18.72;44.81;96696.03;13022738;22;20011;-53
2022/01/20 06:36:32;;;;;;;1.00;0.70;;;;;;;18.75;44.89;96678.38;13023704;22;20065;-54
2022/01/20 06:41:52;;;;;;;1.08;0.80;;;;;;;18.79;44.70;96673.94;13044401;22;20023;-55
2022/01/20 06:47:12;;;;;;;1.58;0.80;;;;;;;18.83;44.74;96668.72;13066569;22;20019;-55
2022/01/20 06:52:32;;;;;;;1.05;0.80;;;;;;;18.86;44.89;96673.47;13022462;22;20072;-55
2022/01/20 06:57:51;;;;;;;2.25;0.75;;;;;;;18.89;44.96;96678.22;13046187;22;20019;-54
2022/01/20 07:03:11;;;;;;;1.77;0.90;;;;;;;18.92;45.00;96683.78;13022105;22;20124;-55
2022/01/20 07:08:31;;;;;;;3.03;0.80;;;;;;;18.94;45.10;96680.75;13043779;22;20561;-54
2022/01/20 07:13:50;;;;;;;1.77;0.90;;;;;;;18.96;45.22;96684.72;13022772;22;20018;-55
2022/01/20 07:19:10;;;;;;;2.55;0.90;;;;;;;18.98;44.95;96684.38;13042341;22;20015;-55
2022/01/20 07:24:30;;;;;;;4.40;1.35;;;;;;;18.99;45.15;96672.47;13041800;22;20506;-55
2022/01/20 07:29:57;;;;;;;6.65;1.88;;;;;;;19.00;45.32;96668.66;13022024;22;20019;-55
2022/01/20 07:35:17;;;;;;;7.47;1.90;;;;;;;19.02;45.20;96665.66;13022794;22;20061;-54
2022/01/20 07:40:37;;;;;;;12.63;3.15;;;;;;;19.02;45.32;96666.44;13043571;22;20021;-55
2022/01/20 07:45:57;;;;;;;13.73;2.72;;;;;;;19.04;45.35;96648.00;13043154;22;20070;-54
2022/01/20 07:51:26;;;;;;;12.18;2.70;;;;;;;19.05;45.43;96644.19;13019955;22;20435;-55
2022/01/20 07:56:49;;;;;;;10.30;2.60;;;;;;;19.06;45.24;96640.38;13020301;22;20065;-54
2022/01/20 08:02:08;;;;;;;10.80;3.03;;;;;;;19.07;45.40;96630.34;13021985;22;20023;-53
2022/01/20 08:07:28;;;;;;;9.73;2.80;;;;;;;19.07;45.33;96620.38;13021784;22;20053;-54
2022/01/20 08:12:48;;;;;;;8.68;2.88;;;;;;;19.08;45.48;96630.03;13022036;22;20011;-53
2022/01/20 08:18:14;;;;;;;8.43;2.55;;;;;;;19.10;45.50;96629.72;13044899;22;20498;-55
2022/01/20 08:23:35;;;;;;;7.88;2.88;;;;;;;19.09;45.24;96620.81;13021881;22;20045;-54
2022/01/20 08:28:55;;;;;;;8.35;2.80;;;;;;;19.10;45.20;96611.59;13042385;22;20071;-54
2022/01/20 08:34:15;;;;;;;12.07;2.97;;;;;;;19.10;45.23;96621.59;13021542;22;20011;-55
2022/01/20 08:39:54;;;;;;;7.97;2.60;;;;;;;19.10;44.98;96635.91;13044972;22;20392;-54
2022/01/20 08:45:17;;;;;;;11.13;2.55;;;;;;;19.09;45.07;96615.44;13021613;22;20015;-54
2022/01/20 08:50:36;;;;;;;7.88;2.60;;;;;;;19.08;44.91;96616.53;13021683;22;20037;-53
2022/01/20 08:55:59;;;;;;;5.47;2.40;;;;;;;19.07;44.84;96631.16;13041521;22;20427;-55
2022/01/20 09:01:19;;;;;;;7.68;2.75;;;;;;;19.08;44.81;96603.03;13021505;22;20435;-55
2022/01/20 09:06:39;;;;;;;6.95;2.80;;;;;;;19.07;44.73;96601.47;13020429;22;20031;-54
2022/01/20 09:17:31;;;;;;;4.47;2.13;;;;;;;19.10;44.49;96602.72;13020214;22;20016;-55
2022/01/20 09:22:51;;;;;;;7.85;3.03;;;;;;;19.08;44.51;96610.34;13043291;22;20011;-55
2022/01/20 09:28:11;;;;;;;6.15;2.20;;;;;;;19.08;44.54;96599.53;13021494;22;20021;-55
2022/01/20 09:33:31;;;;;;;8.32;2.72;;;;;;;19.08;44.50;96583.34;13064762;22;20022;-54
2022/01/20 09:38:52;;;;;;;4.50;1.80;;;;;;;19.07;44.23;96601.47;13043977;22;20022;-55
2022/01/20 09:44:22;;;;;;;5.18;2.15;;;;;;;19.06;44.15;96618.75;13043428;22;20025;-55
2022/01/20 09:49:42;;;;;;;3.72;1.60;;;;;;;19.05;43.90;96735.19;13048120;22;20056;-54
2022/01/20 09:55:15;;;;;;;5.38;2.20;;;;;;;19.03;43.79;96738.19;13024077;22;20390;-56
2022/01/20 10:00:35;;;;;;;5.50;2.00;;;;;;;19.02;43.85;96720.44;13023875;22;20022;-55
2022/01/20 10:05:54;;;;;;;5.28;1.90;;;;;;;19.02;43.81;96692.66;13023672;22;20085;-55
2022/01/20 10:11:15;;;;;;;4.68;1.80;;;;;;;19.01;43.90;96713.44;13024752;22;20415;-55
2022/01/20 10:17:01;;;;;;;5.03;1.75;;;;;;;19.00;43.73;96701.06;13020897;22;20031;-55
2022/01/20 10:22:25;;;;;;;4.38;1.77;;;;;;;19.00;43.81;96719.16;13047628;22;20019;-54
2022/01/20 10:27:57;;;;;;;6.53;2.03;;;;;;;19.00;43.86;96719.16;13024213;22;20015;-52
2022/01/20 10:33:17;;;;;;;4.25;1.75;;;;;;;18.99;43.81;96710.25;13044787;22;20015;-55
2022/01/20 10:39:09;;;;;;;3.85;1.80;;;;;;;19.00;43.71;96721.88;13023607;22;20026;-55
2022/01/20 10:44:49;;;;;;;2.83;1.30;;;;;;;18.98;43.55;96711.38;13013493;22;20722;-54
2022/01/20 10:50:16;;;;;;;3.38;1.67;;;;;;;19.00;43.53;96711.06;13047124;22;20019;-54
2022/01/20 10:55:43;;;;;;;2.70;1.48;;;;;;;19.00;43.61;96708.38;13023244;22;20016;-55
2022/01/20 11:01:16;;;;;;;1.90;1.27;;;;;;;19.00;43.72;96733.47;13023403;22;20145;-54
2022/01/20 11:06:36;;;;;;;;;;;;;;;18.99;43.56;96726.47;13023545;22;20019;-54
2022/01/20 11:12:20;;;;;;;3.30;1.50;;;;;;;18.98;43.62;96730.28;13044111;22;19914;-54
2022/01/20 11:17:50;;;;;;;;;;;;;;;18.99;43.56;96725.66;13022673;22;20082;-55
2022/01/20 11:23:09;;;;;;;2.53;1.35;;;;;;;18.98;43.48;96714.09;13043771;22;20005;-54
2022/01/20 11:28:34;;;;;;;2.45;1.30;;;;;;;18.98;43.44;96718.69;13022971;22;20019;-55
2022/01/20 11:34:24;;;;;;;3.30;1.40;;;;;;;18.96;43.64;96722.50;13043429;22;20027;-55
2022/01/20 11:39:44;;;;;;;3.08;1.40;;;;;;;18.96;43.56;96722.50;13045667;22;20072;-54
2022/01/20 11:45:26;;;;;;;3.38;1.30;;;;;;;18.96;43.64;96716.31;13043002;22;20015;-54
2022/01/20 11:50:47;;;;;;;2.47;1.38;;;;;;;18.96;43.45;96732.50;13045579;22;20011;-54
2022/01/20 11:56:08;;;;;;;2.45;1.17;;;;;;;18.94;43.34;96723.94;13022024;22;20603;-55
2022/01/20 12:01:30;;;;;;;2.20;1.20;;;;;;;18.93;43.53;96722.34;13045279;22;20041;-55
2022/01/20 12:06:49;;;;;;;2.30;1.30;;;;;;;18.93;43.55;96735.84;13065417;22;20025;-55
2022/01/20 12:12:25;;;;;;;2.92;1.42;;;;;;;18.91;43.48;96738.06;13045062;22;20347;-55
2022/01/20 12:17:52;;;;;;;2.80;1.73;;;;;;;18.90;43.35;96753.47;13065855;22;20022;-54
2022/01/20 12:23:12;;;;;;;2.55;1.23;;;;;;;18.89;43.34;96754.59;13044855;22;20549;-52
2022/01/20 12:28:32;;;;;;;2.10;1.00;;;;;;;18.88;41.79;96744.13;13064468;22;20015;-54
2022/01/20 12:33:54;;;;;;;2.28;1.02;;;;;;;18.81;40.84;96735.72;13017892;22;20466;-55
2022/01/20 12:39:21;;;;;;;1.90;1.17;;;;;;;18.81;41.87;96739.19;13064706;22;20022;-55
2022/01/20 12:50:29;;;;;;;2.58;1.02;;;;;;;18.82;42.13;96748.09;13006309;22;20077;-55
2022/01/20 12:55:52;;;;;;;2.25;1.20;;;;;;;18.83;42.40;96738.88;13043922;22;20015;-54
2022/01/20 13:01:11;;;;;;;2.13;1.10;;;;;;;18.83;42.52;96744.28;13044497;22;20038;-55
2022/01/20 13:06:32;;;;;;;2.28;1.13;;;;;;;18.83;42.36;96738.88;13060427;22;20015;-54
2022/01/20 13:17:27;;;;;;;2.03;1.00;;;;;;;18.80;42.62;96740.34;13043755;22;20381;-54
2022/01/20 13:22:57;;;;;;;2.25;1.10;;;;;;;18.81;42.86;96746.50;13068729;22;20019;-55
2022/01/20 13:28:17;;;;;;;3.00;1.30;;;;;;;18.80;43.06;96755.72;13047857;22;20094;-55
2022/01/20 13:33:38;;;;;;;3.10;1.23;;;;;;;18.80;43.16;96753.00;13047927;22;20477;-55
2022/01/20 13:39:00;;;;;;;2.65;1.13;;;;;;;18.80;43.11;96750.31;13047503;22;20015;-54
2022/01/20 13:49:58;;;;;;;1.93;1.00;;;;;;;18.79;43.35;96760.28;13047583;22;20415;-55
2022/01/20 13:55:25;;;;;;;1.77;1.05;;;;;;;18.78;43.15;96764.91;13045476;22;20086;-54
2022/01/20 14:00:45;;;;;;;2.40;1.10;;;;;;;18.78;43.28;96777.63;13047069;22;20616;-54
2022/01/20 14:06:06;;;;;;;2.40;1.20;;;;;;;18.76;43.49;96772.53;13046362;22;20088;-55
2022/01/20 14:11:25;;;;;;;1.65;1.00;;;;;;;18.74;43.30;96790.94;13046940;22;20328;-54
2022/01/20 14:16:45;;;;;;;1.75;1.00;;;;;;;18.75;43.49;96803.31;13067409;22;20451;-55
2022/01/20 14:22:05;;;;;;;2.03;0.77;;;;;;;18.74;43.51;96809.84;13046808;22;20015;-54
2022/01/20 14:27:24;;;;;;;1.38;0.88;;;;;;;18.74;43.44;96817.94;13047441;22;20573;-54
2022/01/20 14:32:44;;;;;;;2.67;1.35;;;;;;;18.72;43.43;96809.38;13048024;22;20496;-55
2022/01/20 14:38:03;;;;;;;2.17;1.00;;;;;;;18.71;43.46;96802.38;13048091;22;20015;-55
2022/01/20 14:43:23;;;;;;;1.52;0.70;;;;;;;18.70;43.47;96805.38;13047819;22;20043;-55
2022/01/20 14:48:43;;;;;;;0.95;0.75;;;;;;;18.69;43.32;96793.78;13047807;22;20025;-54
2022/01/20 14:54:02;;;;;;;0.63;0.63;;;;;;;18.69;43.53;96793.78;13067915;22;20019;-54
2022/01/20 14:59:22;;;;;;;1.92;0.80;;;;;;;18.65;43.48;96768.56;13047571;22;20474;-56
2022/01/20 15:04:42;;;;;;;1.02;0.77;;;;;;;18.65;43.38;96783.97;13046822;22;20455;-55
2022/01/20 15:10:03;;;;;;;1.55;0.93;;;;;;;18.62;43.35;96788.09;13068119;22;20015;-55
2022/01/20 15:15:23;;;;;;;1.80;0.93;;;;;;;18.62;43.20;96781.88;13047331;22;20114;-55
2022/01/20 15:20:42;;;;;;;1.10;0.80;;;;;;;18.61;43.11;96786.50;13067373;22;20019;-55
2022/01/20 15:26:02;;;;;;;1.38;0.90;;;;;;;18.60;43.03;96784.91;13046768;22;20519;-54
2022/01/20 15:31:22;;;;;;;1.70;0.80;;;;;;;18.60;43.27;96784.13;13067641;22;20019;-54
2022/01/20 15:36:42;;;;;;;1.02;0.77;;;;;;;18.59;43.19;96753.66;13046712;22;20022;-55
2022/01/20 15:42:02;;;;;;;1.33;0.90;;;;;;;18.62;43.08;96787.28;13046513;22;20015;-56
2022/01/20 15:47:22;;;;;;;1.65;1.05;;;;;;;18.62;43.11;96798.06;13046729;22;20098;-54
2022/01/20 15:52:41;;;;;;;2.03;0.82;;;;;;;18.62;42.96;96798.91;13046140;22;20121;-53
2022/01/20 15:58:02;;;;;;;1.45;0.90;;;;;;;18.64;42.99;96785.06;13066737;22;20025;-55
2022/01/20 16:03:22;;;;;;;2.22;1.02;;;;;;;18.65;43.09;96792.84;13046026;22;20080;-55
2022/01/20 16:08:41;;;;;;;1.70;0.80;;;;;;;18.68;42.72;96804.91;13045409;22;20034;-55
2022/01/20 16:14:00;;;;;;;2.67;1.25;;;;;;;18.64;38.21;96812.88;13042894;22;20086;-53
2022/01/20 16:19:20;;;;;;;1.58;0.98;;;;;;;18.65;41.52;96822.53;13041671;22;20023;-54
2022/01/20 16:24:39;;;;;;;1.10;0.93;;;;;;;18.70;41.61;96821.56;13045752;22;20469;-53
2022/01/20 16:29:59;;;;;;;3.08;0.82;;;;;;;18.74;41.83;96812.53;13062024;22;20011;-55
2022/01/20 16:35:19;;;;;;;2.90;0.85;;;;;;;18.80;42.29;96815.09;13041243;22;20065;-54
2022/01/20 16:40:38;;;;;;;2.28;1.00;;;;;;;18.84;42.49;96821.47;13041013;22;20040;-54
2022/01/20 16:45:58;;;;;;;1.38;0.93;;;;;;;18.89;42.67;96846.34;13062009;22;20098;-55
2022/01/20 16:51:18;;;;;;;2.45;0.90;;;;;;;18.93;42.55;96862.72;13042023;22;20317;-55
2022/01/20 16:56:37;;;;;;;2.88;0.80;;;;;;;18.97;42.67;96844.78;13046756;22;20023;-56
2022/01/20 17:01:58;;;;;;;1.95;0.73;;;;;;;19.01;42.76;96834.91;13067986;22;20015;-57
2022/01/20 17:07:18;;;;;;;1.77;0.90;;;;;;;19.06;42.90;96845.56;13050728;22;20042;-60
2022/01/20 17:12:37;;;;;;;3.10;0.90;;;;;;;19.11;42.99;96855.41;13050537;22;20015;-57
2022/01/20 17:17:57;;;;;;;1.20;0.70;;;;;;;19.16;43.05;96855.25;13072232;22;20354;-57
2022/01/20 17:23:18;;;;;;;5.93;2.47;;;;;;;19.22;43.30;96872.06;13051426;22;20022;-57
2022/01/20 17:28:37;;;;;;;14.85;3.88;;;;;;;19.27;43.61;96867.31;13050877;22;20019;-56
2022/01/20 17:33:58;;;;;;;6.50;2.75;;;;;;;19.32;43.93;96866.34;13051350;22;20022;-55
2022/01/20 17:39:19;;;;;;;9.00;2.85;;;;;;;19.36;44.39;96865.38;13072212;22;20018;-54
2022/01/20 17:44:38;;;;;;;16.55;7.38;;;;;;;19.42;44.80;96871.41;13050005;22;20068;-52
2022/01/20 17:49:57;;;;;;;29.02;13.10;;;;;;;19.49;45.64;96868.22;13048222;22;20038;-55
2022/01/20 17:55:19;;;;;;;30.73;12.98;;;;;;;19.53;45.88;96861.06;13049199;22;20023;-56
2022/01/20 18:00:39;;;;;;;21.27;10.02;;;;;;;19.57;45.88;96853.88;13049454;22;20016;-55
2022/01/20 18:05:59;;;;;;;18.38;9.07;;;;;;;19.62;45.79;96861.81;13047775;22;20042;-57
2022/01/20 18:11:18;;;;;;;18.35;8.07;;;;;;;19.66;45.96;96851.97;13047275;22;20015;-56
2022/01/20 18:16:38;;;;;;;14.00;7.68;;;;;;;19.71;45.63;96867.19;13061868;22;20011;-58
2022/01/20 18:21:57;;;;;;;15.90;6.88;;;;;;;19.75;45.38;96874.34;13043626;22;20022;-54
2022/01/20 18:27:17;;;;;;;12.98;5.97;;;;;;;19.80;45.39;96872.59;13043735;22;20025;-58
2022/01/20 18:32:37;;;;;;;12.60;5.90;;;;;;;19.85;45.08;96881.31;13042935;22;20038;-56
2022/01/20 18:37:58;;;;;;;11.85;5.20;;;;;;;19.87;45.17;96883.69;13044182;22;20053;-57
2022/01/20 18:43:18;;;;;;;9.18;4.55;;;;;;;19.94;44.92;96870.47;13042744;22;20012;-55
2022/01/20 18:48:37;;;;;;;7.68;4.30;;;;;;;19.99;44.42;96888.44;13043481;22;20098;-56
2022/01/20 18:53:57;;;;;;;11.05;4.35;;;;;;;20.04;44.13;96877.44;13043090;22;20019;-56
2022/01/20 18:59:17;;;;;;;6.57;3.75;;;;;;;20.10;44.16;96881.53;13041809;22;20015;-57
2022/01/20 19:04:39;;;;;;;7.13;3.17;;;;;;;20.15;43.99;96889.47;13042098;22;20124;-57
2022/01/20 19:09:59;;;;;;;5.28;2.88;;;;;;;20.16;43.97;96891.06;13064158;22;20019;-58
2022/01/20 19:15:20;;;;;;;6.97;3.22;;;;;;;20.20;44.00;96894.69;13042480;22;20019;-57
2022/01/20 19:20:39;;;;;;;7.60;2.92;;;;;;;20.21;44.06;96892.78;13020452;22;20015;-55
2022/01/20 19:25:59;;;;;;;6.43;2.63;;;;;;;20.23;44.22;96880.53;13063842;22;20026;-55
2022/01/20 19:31:18;;;;;;;5.30;2.35;;;;;;;20.25;44.21;96904.56;13042226;22;20019;-56
2022/01/20 19:36:38;;;;;;;4.38;2.28;;;;;;;20.26;44.05;96904.22;13043246;22;20021;-56
2022/01/20 19:41:58;;;;;;;4.72;2.35;;;;;;;20.27;44.00;96919.34;13042560;22;20483;-56
2022/01/20 19:47:18;;;;;;;4.00;2.17;;;;;;;20.28;43.94;96896.56;13042536;22;20076;-57
2022/01/20 19:52:38;;;;;;;5.95;2.33;;;;;;;20.28;43.84;96888.44;13041658;22;20517;-57
2022/01/20 19:57:58;;;;;;;3.75;1.65;;;;;;;20.30;43.83;96891.59;13062920;22;20019;-57
2022/01/20 20:03:18;;;;;;;5.70;2.17;;;;;;;20.30;43.80;96907.06;13040055;22;20016;-56
2022/01/20 20:08:39;;;;;;;5.13;1.90;;;;;;;20.31;43.82;96916.78;13040920;22;20106;-56
2022/01/20 20:13:58;;;;;;;4.20;1.85;;;;;;;20.30;43.91;96904.34;13061508;22;20114;-56
2022/01/20 20:19:18;;;;;;;6.07;2.05;;;;;;;20.31;43.82;96903.25;13040469;22;20019;-57
2022/01/20 20:24:38;;;;;;;3.17;1.63;;;;;;;20.32;43.96;96905.59;13041451;22;20023;-57
2022/01/20 20:29:59;;;;;;;4.28;1.90;;;;;;;20.32;44.30;96916.44;13040845;22;20019;-54
2022/01/20 20:35:19;;;;;;;4.10;1.90;;;;;;;20.33;44.28;96931.56;13039810;22;20064;-54
2022/01/20 20:40:39;;;;;;;5.60;1.75;;;;;;;20.32;44.17;96940.78;13039166;22;20030;-54
2022/01/20 20:45:59;;;;;;;4.30;2.03;;;;;;;20.32;44.21;96954.31;13040828;22;20076;-54
2022/01/20 20:51:18;;;;;;;4.82;2.10;;;;;;;20.32;44.05;96954.31;13060684;22;20489;-54
2022/01/20 20:56:38;;;;;;;6.50;2.28;;;;;;;20.32;44.04;96978.66;13040256;22;20023;-54
2022/01/20 21:01:58;;;;;;;8.00;2.20;;;;;;;20.31;43.95;96989.81;13062458;22;20041;-54
2022/01/20 21:07:23;;;;;;;5.85;2.55;;;;;;;20.30;44.04;97002.53;13041024;22;20525;-55
2022/01/20 21:12:43;;;;;;;5.57;2.33;;;;;;;20.29;44.16;96992.84;13041383;22;20016;-55
2022/01/20 21:18:03;;;;;;;7.15;2.35;;;;;;;20.29;44.17;97008.28;13040704;22;20678;-54
2022/01/20 21:23:23;;;;;;;5.55;2.10;;;;;;;20.29;44.10;97011.00;13060852;22;20065;-55
2022/01/20 21:28:43;;;;;;;6.13;2.40;;;;;;;20.28;43.99;97012.09;13038832;22;20033;-55
2022/01/20 21:34:03;;;;;;;4.00;2.20;;;;;;;20.28;44.06;97006.69;13039125;22;20380;-54
2022/01/20 21:39:24;;;;;;;7.03;2.58;;;;;;;20.27;44.02;97024.06;13061137;22;20503;-54
2022/01/20 21:44:44;;;;;;;6.68;2.60;;;;;;;20.26;44.26;97030.56;13045273;22;20019;-53
2022/01/20 21:50:04;;;;;;;5.60;2.38;;;;;;;20.24;44.42;97038.22;13045333;22;20096;-53
2022/01/20 21:55:24;;;;;;;6.50;3.00;;;;;;;20.24;44.51;97039.00;13064669;22;20019;-52
2022/01/20 22:00:48;;;;;;;5.53;2.42;;;;;;;20.24;44.81;97049.81;13042035;22;20354;-55
2022/01/20 22:06:07;;;;;;;6.50;2.67;;;;;;;20.23;44.80;97059.06;13065558;22;20016;-56
2022/01/20 22:11:27;;;;;;;4.95;2.22;;;;;;;20.23;44.89;97064.47;13044829;22;20026;-56
2022/01/20 22:16:46;;;;;;;9.45;2.60;;;;;;;20.23;45.14;97059.06;13045024;22;20027;-55
2022/01/20 22:22:07;;;;;;;6.13;2.47;;;;;;;20.21;45.18;97069.41;13044315;22;20359;-55
2022/01/20 22:27:26;;;;;;;6.38;2.17;;;;;;;20.21;45.38;97077.53;13066636;22;20022;-55
2022/01/20 22:32:45;;;;;;;6.13;2.65;;;;;;;20.20;45.12;97097.56;13045776;22;20079;-54
2022/01/20 22:38:06;;;;;;;4.13;2.10;;;;;;;20.19;45.21;97101.41;13066660;22;20015;-56
2022/01/20 22:43:27;;;;;;;5.82;2.45;;;;;;;20.18;45.19;97105.22;13044758;22;20015;-56
2022/01/20 22:48:47;;;;;;;5.13;2.15;;;;;;;20.17;45.38;97109.03;13044907;22;20019;-55
2022/01/20 22:54:07;;;;;;;5.63;2.17;;;;;;;20.15;45.11;97133.72;13065275;22;20014;-55
2022/01/20 22:59:26;;;;;;;4.15;2.13;;;;;;;20.15;45.27;97146.44;13045538;22;20532;-55
2022/01/20 23:04:46;;;;;;;4.85;2.10;;;;;;;20.11;45.17;97154.41;13065742;22;20021;-56
2022/01/20 23:10:09;;;;;;;3.55;1.90;;;;;;;20.10;45.20;97147.38;13045189;22;20038;-55
2022/01/20 23:15:34;;;;;;;6.38;2.38;;;;;;;20.09;45.41;97163.91;13045571;22;20022;-56
2022/01/20 23:20:53;;;;;;;3.75;1.80;;;;;;;20.08;45.24;97165.06;13045005;22;20342;-55
2022/01/20 23:26:19;;;;;;;4.68;1.90;;;;;;;20.06;45.33;97173.47;13046935;22;20043;-56
2022/01/20 23:31:38;;;;;;;5.70;2.00;;;;;;;20.05;45.15;97181.91;13047235;22;20372;-55
2022/01/20 23:36:58;;;;;;;3.45;1.90;;;;;;;20.02;44.99;97182.56;13046238;22;20023;-56
2022/01/20 23:42:27;;;;;;;5.20;1.85;;;;;;;20.00;45.06;97190.97;13067343;22;20011;-56
2022/01/20 23:53:25;;;;;;;2.97;1.50;;;;;;;19.97;45.09;97218.66;13067332;22;20216;-55
2022/01/20 23:58:45;;;;;;;5.35;1.83;;;;;;;19.95;45.00;97239.78;13065105;22;20019;-56
